Schippersgracht — PCGR — position and weather

sailwx.info

Track history (hours):
 
Tides and Currents Weather Stations Pressure Air Temp Water Temp Dewpoint Dewpoint Depression Visibility Wind Speed Wind Dir Waves Ship Positions

Schippersgracht

Last reported at 2019-Jun-04 03:09 UTC. Time now 2019-Jun-20 03:42 UTC.
Position N 58°43' W 004°13'.
Warning: this ship's position is 16 days out of date.

Length 168 m; beam 25 m.

Type: Cargo ship. MMSI: 245578000.

Date/timePositionNaut miles runAvg speedWind from/ knotsBaromVisibWave heightAir tempDewpointWater temp
2019-Jun-04 03:09N 58°43' W 004°13'316.7
2019-Jun-04 02:57N 58°43' W 004°06'716.5
2019-Jun-04 02:30N 58°43' W 003°52'816.9
2019-Jun-04 02:00N 58°43' W 003°36'918.8
2019-Jun-04 01:30N 58°43' W 003°18'1019.4
2019-Jun-04 01:00N 58°40' W 002°60'917.5
2019-Jun-04 00:30N 58°35' W 002°47'816.4
2019-Jun-04 00:00N 58°29' W 002°36'4715.8
2019-Jun-03 21:04N 57°58' W 001°30'216.1
2019-Jun-03 20:57N 57°57' W 001°27'716.3
2019-Jun-03 20:30N 57°52' W 001°16'33715.9
2019-Jun-02 23:19N 53°56' E 005°52'516.6
2019-Jun-02 23:00N 53°53' E 005°59'815.8
2019-Jun-02 22:30N 53°47' E 006°09'1813.6
2019-Jun-02 21:11N 53°37' E 006°33'314.6
2019-Jun-02 21:00N 53°35' E 006°37'714.8
2019-Jun-02 20:30N 53°31' E 006°46'4 8.8
2019-Jun-02 20:00N 53°27' E 006°50'0 0.1
2019-Jun-02 19:30N 53°27' E 006°50'0 0.0
2019-Jun-02 18:58N 53°27' E 006°50'0 0.0
2019-Jun-02 18:28N 53°27' E 006°50'0 0.0
2019-Jun-02 17:58N 53°27' E 006°50'0 0.0
2019-Jun-02 17:28N 53°27' E 006°50'0 0.0
2019-Jun-02 16:55N 53°27' E 006°50'0 0.0
2019-Jun-02 16:28N 53°27' E 006°50'0 0.0
2019-Jun-02 15:58N 53°27' E 006°50'0 0.0
2019-Jun-02 15:28N 53°27' E 006°50'0 0.0
2019-Jun-02 14:55N 53°27' E 006°50'0 0.0
2019-Jun-02 14:28N 53°27' E 006°50'0 0.0
2019-Jun-02 13:49N 53°27' E 006°50'0 0.0
2019-Jun-02 13:22N 53°27' E 006°50'0 0.0
2019-Jun-02 13:01N 53°27' E 006°50'0 0.0
2019-Jun-02 12:28N 53°27' E 006°50'0 0.0
2019-Jun-02 12:01N 53°27' E 006°50'0 0.0
2019-Jun-02 11:31N 53°27' E 006°50'0 0.0
2019-Jun-02 11:00N 53°27' E 006°50'0 0.0
2019-Jun-02 10:30N 53°27' E 006°50'0 0.0
2019-Jun-02 10:00N 53°27' E 006°50'0 0.0
2019-Jun-02 09:30N 53°27' E 006°50'0 0.0
2019-Jun-02 09:00N 53°27' E 006°50'2 3.0
2019-Jun-02 08:30N 53°29' E 006°50'4 8.6
2019-Jun-02 08:00N 53°32' E 006°45'712.5
2019-Jun-02 07:24N 53°36' E 006°35'512.9
2019-Jun-02 07:00N 53°37' E 006°26'611.4
2019-Jun-02 06:29N 53°39' E 006°17'4 8.2
2019-Jun-02 06:00N 53°43' E 006°18'5 8.8
2019-Jun-02 05:27N 53°47' E 006°15'4 7.4
2019-Jun-02 04:56N 53°51' E 006°12'24 8.4
2019-Jun-02 02:06N 54°15' E 006°17'310.3
2019-Jun-02 01:50N 54°17' E 006°21'310.7
2019-Jun-02 01:30N 54°19' E 006°25'611.4
2019-Jun-02 01:00N 54°24' E 006°29'812.5
2019-Jun-02 00:22N 54°32' E 006°30'13916.1
2019-Jun-01 15:44N 56°45' E 007°41'515.9
2019-Jun-01 15:25N 56°50' E 007°44'715.8
2019-Jun-01 14:57N 56°57' E 007°49'1016.0
2019-Jun-01 14:21N 57°06' E 007°56'615.9
2019-Jun-01 14:00N 57°11' E 008°01'916.2
2019-Jun-01 13:28N 57°16' E 008°13'815.8
2019-Jun-01 12:59N 57°21' E 008°24'715.4
2019-Jun-01 12:30N 57°25' E 008°36'815.3
2019-Jun-01 12:00N 57°29' E 008°47'814.9
2019-Jun-01 11:30N 57°34' E 008°58'714.5
2019-Jun-01 11:00N 57°37' E 009°10'714.5
2019-Jun-01 10:30N 57°40' E 009°22'814.4
2019-Jun-01 09:59N 57°43' E 009°35'714.6
2019-Jun-01 09:30N 57°46' E 009°47'714.9
2019-Jun-01 08:59N 57°48' E 010°01'815.6
2019-Jun-01 08:30N 57°51' E 010°14'814.8
2019-Jun-01 08:00N 57°53' E 010°27'816.2
2019-Jun-01 07:30N 57°50' E 010°42'815.6
2019-Jun-01 07:00N 57°44' E 010°48'5 9.4
2019-Jun-01 06:30N 57°41' E 010°41'2 2.9
2019-Jun-01 05:59N 57°42' E 010°38'0 0.0
2019-Jun-01 05:20N 57°42' E 010°38'0 0.0
2019-Jun-01 04:59N 57°42' E 010°38'0 0.0
2019-Jun-01 04:29N 57°42' E 010°38'0 0.0
2019-Jun-01 03:59N 57°42' E 010°38'0 0.0
2019-Jun-01 03:29N 57°42' E 010°38'0 0.0
2019-Jun-01 02:59N 57°42' E 010°38'0 0.0
2019-Jun-01 02:26N 57°42' E 010°38'0 0.0
2019-Jun-01 01:56N 57°42' E 010°38'0 0.0
2019-Jun-01 01:29N 57°42' E 010°38'0 0.0
2019-Jun-01 00:59N 57°42' E 010°38'0 0.0
2019-Jun-01 00:29N 57°42' E 010°38'0 0.0
2019-May-31 23:59N 57°42' E 010°38'0 0.0
2019-May-31 23:29N 57°42' E 010°38'0 0.0
2019-May-31 22:59N 57°42' E 010°38'0 0.0
2019-May-31 22:29N 57°42' E 010°38'0 0.0
2019-May-31 21:59N 57°42' E 010°38'0 0.0
2019-May-31 21:29N 57°42' E 010°38'0 0.0
2019-May-31 20:59N 57°42' E 010°38'0 0.0
2019-May-31 20:28N 57°42' E 010°38'0 0.4
2019-May-31 20:00N 57°41' E 010°39'4 7.3
2019-May-31 19:30N 57°40' E 010°45'816.1
2019-May-31 19:00N 57°36' E 010°58'917.4
2019-May-31 18:30N 57°32' E 011°12'816.6
2019-May-31 18:00N 57°28' E 011°26'816.6
2019-May-31 17:30N 57°20' E 011°32'917.1
2019-May-31 17:00N 57°12' E 011°37'816.9
2019-May-31 16:30N 57°04' E 011°42'917.4
2019-May-31 16:00N 56°56' E 011°47'817.1
2019-May-31 15:30N 56°48' E 011°52'9615.6
2019-May-31 09:21N 55°16' E 011°04'514.1
2019-May-31 09:00N 55°11' E 011°04'714.3
2019-May-31 08:30N 55°05' E 010°60'815.4
2019-May-31 08:00N 54°57' E 010°56'816.2
2019-May-31 07:30N 54°50' E 010°50'816.7
2019-May-31 07:00N 54°42' E 010°47'815.6
2019-May-31 06:30N 54°37' E 010°58'815.8
2019-May-31 06:00N 54°36' E 011°11'816.1
2019-May-31 05:30N 54°32' E 011°24'816.9
2019-May-31 05:00N 54°29' E 011°37'816.2
2019-May-31 04:30N 54°26' E 011°50'1322.0
2019-May-31 03:54N 54°30' E 012°12'1110.7
2019-May-31 02:51N 54°39' E 012°23'6516.5
2019-May-30 22:54N 55°06' E 014°06'616.5
2019-May-30 22:30N 55°11' E 014°14'2116.4
2019-May-30 21:14N 55°27' E 014°37'416.2
2019-May-30 21:00N 55°29' E 014°43'1616.3
2019-May-30 20:00N 55°37' E 015°08'816.3
2019-May-30 19:30N 55°41' E 015°20'816.4
2019-May-30 19:00N 55°45' E 015°33'816.5
2019-May-30 18:30N 55°49' E 015°46'816.3
2019-May-30 18:00N 55°53' E 015°58'816.2
2019-May-30 17:30N 55°57' E 016°11'816.4
2019-May-30 17:00N 56°01' E 016°23'816.4
2019-May-30 16:30N 56°06' E 016°36'816.6
2019-May-30 16:00N 56°10' E 016°48'816.7
2019-May-30 15:30N 56°18' E 016°54'816.9
2019-May-30 15:00N 56°26' E 016°60'817.0
2019-May-30 14:30N 56°34' E 017°05'817.0
2019-May-30 14:00N 56°42' E 017°10'16916.8
2019-May-30 03:57N 59°11' E 019°41'817.8
2019-May-30 03:30N 59°17' E 019°49'1517.0
2019-May-30 02:36N 59°31' E 020°04'217.2
2019-May-30 02:28N 59°33' E 020°04'1517.5
2019-May-30 01:36N 59°45' E 019°44'319.1
2019-May-30 01:25N 59°47' E 019°40'717.2
2019-May-30 01:00N 59°53' E 019°31'917.8
2019-May-30 00:30N 59°59' E 019°19'917.9
2019-May-30 00:00N 60°06' E 019°07'816.6
2019-May-29 23:30N 60°14' E 019°00'816.9
2019-May-29 23:00N 60°22' E 018°60'7116.0
2019-May-29 18:35N 61°06' E 020°54'117.0
2019-May-29 18:30N 61°07' E 020°56'714.4
2019-May-29 18:00N 61°07' E 021°11'5 9.6
2019-May-29 17:30N 61°06' E 021°21'3 5.8
2019-May-29 17:00N 61°08' E 021°26'0 0.0
2019-May-29 16:24N 61°08' E 021°26'0 0.0
2019-May-29 15:57N 61°08' E 021°26'0 0.0
2019-May-29 15:30N 61°08' E 021°26'0 0.0
2019-May-29 15:00N 61°08' E 021°26'0 0.0
2019-May-29 14:30N 61°08' E 021°26'0 0.0
2019-May-29 14:00N 61°08' E 021°26'0 0.0
2019-May-29 13:30N 61°08' E 021°26'0 0.0
2019-May-29 13:00N 61°08' E 021°26'0 0.0
2019-May-29 12:30N 61°08' E 021°26'0 0.0
2019-May-29 12:00N 61°08' E 021°26'0 0.0
2019-May-29 11:30N 61°08' E 021°26'0 0.0
2019-May-29 11:00N 61°08' E 021°26'0 0.0
2019-May-29 10:30N 61°08' E 021°26'0 0.0
2019-May-29 10:00N 61°08' E 021°26'0 0.0
2019-May-29 09:30N 61°08' E 021°26'0 0.0
2019-May-29 09:00N 61°08' E 021°26'0 0.0
2019-May-29 08:30N 61°08' E 021°26'0 0.0
2019-May-29 08:00N 61°08' E 021°26'0 0.0
2019-May-29 07:30N 61°08' E 021°26'0 0.0
2019-May-29 06:57N 61°08' E 021°26'0 0.0
2019-May-29 06:30N 61°08' E 021°26'0 0.0
2019-May-29 06:00N 61°08' E 021°26'0 0.0
2019-May-29 05:30N 61°08' E 021°26'0 0.0
2019-May-29 05:00N 61°08' E 021°26'0 0.0
2019-May-29 04:30N 61°08' E 021°26'0 0.0
2019-May-29 04:00N 61°08' E 021°26'0 0.0
2019-May-29 03:30N 61°08' E 021°26'0 0.0
2019-May-29 03:00N 61°08' E 021°26'0 0.0
2019-May-29 02:27N 61°08' E 021°26'0 0.0
2019-May-29 01:57N 61°08' E 021°26'0 0.0
2019-May-29 01:27N 61°08' E 021°26'0 0.0
2019-May-29 00:57N 61°08' E 021°26'0 0.0
2019-May-29 00:27N 61°08' E 021°26'0 0.0
2019-May-29 00:00N 61°08' E 021°26'0 0.0
2019-May-28 23:30N 61°08' E 021°26'0 0.0
2019-May-28 23:00N 61°08' E 021°26'0 0.0
2019-May-28 22:29N 61°08' E 021°26'0 0.0
2019-May-28 21:59N 61°08' E 021°26'0 0.0
2019-May-28 21:26N 61°08' E 021°26'0 0.0
2019-May-28 20:56N 61°08' E 021°26'0 0.0
2019-May-28 20:29N 61°08' E 021°26'0 0.0
2019-May-28 19:56N 61°08' E 021°26'0 0.0
2019-May-28 19:29N 61°08' E 021°26'0 0.0
2019-May-28 18:59N 61°08' E 021°26'0 0.0
2019-May-28 18:29N 61°08' E 021°26'0 0.0
2019-May-28 17:59N 61°08' E 021°26'0 0.0
2019-May-28 17:26N 61°08' E 021°26'0 0.0
2019-May-28 17:00N 61°08' E 021°26'0 0.0
2019-May-28 16:29N 61°08' E 021°26'0 0.0
2019-May-28 15:59N 61°08' E 021°26'0 0.0
2019-May-28 15:30N 61°08' E 021°26'0 0.0
2019-May-28 14:50N 61°08' E 021°26'0 0.0
2019-May-28 14:29N 61°08' E 021°26'0 0.0
2019-May-28 13:59N 61°08' E 021°26'0 0.0
2019-May-28 13:29N 61°08' E 021°26'0 0.0
2019-May-28 12:56N 61°08' E 021°26'0 0.0
2019-May-28 12:26N 61°08' E 021°26'0 0.0
2019-May-28 11:59N 61°08' E 021°26'0 0.0
2019-May-28 11:26N 61°08' E 021°26'0 0.0
2019-May-28 10:59N 61°08' E 021°26'0 0.0
2019-May-28 10:29N 61°08' E 021°26'0 0.0
2019-May-28 09:59N 61°08' E 021°26'0 0.0
2019-May-28 09:29N 61°08' E 021°26'0 0.0
2019-May-28 08:59N 61°08' E 021°26'0 0.0
2019-May-28 08:29N 61°08' E 021°26'0 0.0
2019-May-28 08:01N 61°08' E 021°26'1 2.7
2019-May-28 07:31N 61°07' E 021°24'612.4
2019-May-28 07:00N 61°07' E 021°11'5 9.7
2019-May-28 06:30N 61°10' E 021°02'7 0.2
2019-May-26 15:29N 61°16' E 020°57'817.0
2019-May-26 15:00N 61°09' E 021°06'714.0
2019-May-26 14:31N 61°06' E 021°19'4 7.7
2019-May-26 14:01N 61°08' E 021°26'0 0.0
2019-May-26 13:31N 61°08' E 021°26'0 0.0
2019-May-26 12:58N 61°08' E 021°26'0 0.0
2019-May-26 12:28N 61°08' E 021°26'0 0.0
2019-May-26 11:58N 61°08' E 021°26'0 0.0
2019-May-26 11:28N 61°08' E 021°26'0 0.0
2019-May-26 10:58N 61°08' E 021°26'0 0.0
2019-May-26 10:28N 61°08' E 021°26'0 0.0
2019-May-26 09:58N 61°08' E 021°26'0 0.0
2019-May-26 09:28N 61°08' E 021°26'0 0.0
2019-May-26 08:58N 61°08' E 021°26'0 0.0
2019-May-26 08:28N 61°08' E 021°26'0 0.0
2019-May-26 07:58N 61°08' E 021°26'0 0.0
2019-May-26 07:28N 61°08' E 021°26'0 0.0
2019-May-26 06:58N 61°08' E 021°26'0 0.0
2019-May-26 06:28N 61°08' E 021°26'0 0.0
2019-May-26 05:58N 61°08' E 021°26'0 0.0
2019-May-26 05:28N 61°08' E 021°26'0 0.0
2019-May-26 04:58N 61°08' E 021°26'0 0.0
2019-May-26 04:28N 61°08' E 021°26'0 0.0
2019-May-26 03:58N 61°08' E 021°26'0 0.0
2019-May-26 03:28N 61°08' E 021°26'0 0.0
2019-May-26 02:58N 61°08' E 021°26'0 0.0
2019-May-26 02:28N 61°08' E 021°26'0 0.0
2019-May-26 01:27N 61°08' E 021°26'0 0.0
2019-May-26 01:00N 61°08' E 021°26'0 0.0
2019-May-26 00:30N 61°08' E 021°26'0 0.0
2019-May-26 00:00N 61°08' E 021°26'0 0.0
2019-May-25 23:30N 61°08' E 021°26'0 0.0
2019-May-25 23:00N 61°08' E 021°26'0 0.0
2019-May-25 22:30N 61°08' E 021°26'0 0.0
2019-May-25 21:57N 61°08' E 021°26'0 0.0
2019-May-25 21:30N 61°08' E 021°26'0 0.0
2019-May-25 21:00N 61°08' E 021°26'0 0.0
2019-May-25 20:30N 61°08' E 021°26'0 0.0
2019-May-25 20:00N 61°08' E 021°26'0 0.0
2019-May-25 19:30N 61°08' E 021°26'0 0.0
2019-May-25 18:57N 61°08' E 021°26'0 0.0
2019-May-25 18:30N 61°08' E 021°26'0 0.0
2019-May-25 18:00N 61°08' E 021°26'0 0.0
2019-May-25 17:27N 61°08' E 021°26'0 0.0
2019-May-25 16:54N 61°08' E 021°26'0 0.0
2019-May-25 16:30N 61°08' E 021°26'0 0.0
2019-May-25 15:51N 61°08' E 021°26'0 0.0
2019-May-25 15:27N 61°08' E 021°26'0 0.0
2019-May-25 14:54N 61°08' E 021°26'0 0.0
2019-May-25 14:30N 61°08' E 021°26'0 0.0
2019-May-25 13:57N 61°08' E 021°26'0 0.0
2019-May-25 13:30N 61°08' E 021°26'0 0.0
2019-May-25 13:00N 61°08' E 021°26'0 0.0
2019-May-25 12:30N 61°08' E 021°26'0 0.0
2019-May-25 12:00N 61°08' E 021°26'0 0.0
2019-May-25 11:30N 61°08' E 021°26'0 0.0
2019-May-25 10:57N 61°08' E 021°26'0 0.0
2019-May-25 10:30N 61°08' E 021°26'0 0.0
2019-May-25 10:00N 61°08' E 021°26'0 0.0
2019-May-25 09:30N 61°08' E 021°26'0 0.0
2019-May-25 09:00N 61°08' E 021°26'0 0.0
2019-May-25 08:30N 61°08' E 021°26'0 0.0
2019-May-25 08:00N 61°08' E 021°26'0 0.0
2019-May-25 07:30N 61°08' E 021°26'0 0.0
2019-May-25 07:00N 61°08' E 021°26'0 0.0
2019-May-25 06:30N 61°08' E 021°26'0 0.0
2019-May-25 06:00N 61°08' E 021°26'0 0.0
2019-May-25 05:30N 61°08' E 021°26'0 0.0
2019-May-25 05:00N 61°08' E 021°26'0 0.0
2019-May-25 04:30N 61°08' E 021°26'0 0.0
2019-May-25 04:00N 61°08' E 021°26'0 0.0
2019-May-25 03:30N 61°08' E 021°26'  
Track history (hours):
 
Tides and Currents Weather Stations Pressure Air Temp Water Temp Dewpoint Dewpoint Depression Visibility Wind Speed Wind Dir Waves Ship Positions

Schippersgracht

Last reported at 2019-Jun-04 03:09 UTC. Time now 2019-Jun-20 03:42 UTC.
Position N 58°43' W 004°13'.
Warning: this ship's position is 16 days out of date.

Length 168 m; beam 25 m.

Type: Cargo ship. MMSI: 245578000.

Date/timePositionNaut miles runAvg speedWind from/ knotsBaromVisibWave heightAir tempDewpointWater temp
2019-Jun-04 03:09N 58°43' W 004°13'316.7
2019-Jun-04 02:57N 58°43' W 004°06'716.5
2019-Jun-04 02:30N 58°43' W 003°52'816.9
2019-Jun-04 02:00N 58°43' W 003°36'918.8
2019-Jun-04 01:30N 58°43' W 003°18'1019.4
2019-Jun-04 01:00N 58°40' W 002°60'917.5
2019-Jun-04 00:30N 58°35' W 002°47'816.4
2019-Jun-04 00:00N 58°29' W 002°36'4715.8
2019-Jun-03 21:04N 57°58' W 001°30'216.1
2019-Jun-03 20:57N 57°57' W 001°27'716.3
2019-Jun-03 20:30N 57°52' W 001°16'33715.9
2019-Jun-02 23:19N 53°56' E 005°52'516.6
2019-Jun-02 23:00N 53°53' E 005°59'815.8
2019-Jun-02 22:30N 53°47' E 006°09'1813.6
2019-Jun-02 21:11N 53°37' E 006°33'314.6
2019-Jun-02 21:00N 53°35' E 006°37'714.8
2019-Jun-02 20:30N 53°31' E 006°46'4 8.8
2019-Jun-02 20:00N 53°27' E 006°50'0 0.1
2019-Jun-02 19:30N 53°27' E 006°50'0 0.0
2019-Jun-02 18:58N 53°27' E 006°50'0 0.0
2019-Jun-02 18:28N 53°27' E 006°50'0 0.0
2019-Jun-02 17:58N 53°27' E 006°50'0 0.0
2019-Jun-02 17:28N 53°27' E 006°50'0 0.0
2019-Jun-02 16:55N 53°27' E 006°50'0 0.0
2019-Jun-02 16:28N 53°27' E 006°50'0 0.0
2019-Jun-02 15:58N 53°27' E 006°50'0 0.0
2019-Jun-02 15:28N 53°27' E 006°50'0 0.0
2019-Jun-02 14:55N 53°27' E 006°50'0 0.0
2019-Jun-02 14:28N 53°27' E 006°50'0 0.0
2019-Jun-02 13:49N 53°27' E 006°50'0 0.0
2019-Jun-02 13:22N 53°27' E 006°50'0 0.0
2019-Jun-02 13:01N 53°27' E 006°50'0 0.0
2019-Jun-02 12:28N 53°27' E 006°50'0 0.0
2019-Jun-02 12:01N 53°27' E 006°50'0 0.0
2019-Jun-02 11:31N 53°27' E 006°50'0 0.0
2019-Jun-02 11:00N 53°27' E 006°50'0 0.0
2019-Jun-02 10:30N 53°27' E 006°50'0 0.0
2019-Jun-02 10:00N 53°27' E 006°50'0 0.0
2019-Jun-02 09:30N 53°27' E 006°50'0 0.0
2019-Jun-02 09:00N 53°27' E 006°50'2 3.0
2019-Jun-02 08:30N 53°29' E 006°50'4 8.6
2019-Jun-02 08:00N 53°32' E 006°45'712.5
2019-Jun-02 07:24N 53°36' E 006°35'512.9
2019-Jun-02 07:00N 53°37' E 006°26'611.4
2019-Jun-02 06:29N 53°39' E 006°17'4 8.2
2019-Jun-02 06:00N 53°43' E 006°18'5 8.8
2019-Jun-02 05:27N 53°47' E 006°15'4 7.4
2019-Jun-02 04:56N 53°51' E 006°12'24 8.4
2019-Jun-02 02:06N 54°15' E 006°17'310.3
2019-Jun-02 01:50N 54°17' E 006°21'310.7
2019-Jun-02 01:30N 54°19' E 006°25'611.4
2019-Jun-02 01:00N 54°24' E 006°29'812.5
2019-Jun-02 00:22N 54°32' E 006°30'13916.1
2019-Jun-01 15:44N 56°45' E 007°41'515.9
2019-Jun-01 15:25N 56°50' E 007°44'715.8
2019-Jun-01 14:57N 56°57' E 007°49'1016.0
2019-Jun-01 14:21N 57°06' E 007°56'615.9
2019-Jun-01 14:00N 57°11' E 008°01'916.2
2019-Jun-01 13:28N 57°16' E 008°13'815.8
2019-Jun-01 12:59N 57°21' E 008°24'715.4
2019-Jun-01 12:30N 57°25' E 008°36'815.3
2019-Jun-01 12:00N 57°29' E 008°47'814.9
2019-Jun-01 11:30N 57°34' E 008°58'714.5
2019-Jun-01 11:00N 57°37' E 009°10'714.5
2019-Jun-01 10:30N 57°40' E 009°22'814.4
2019-Jun-01 09:59N 57°43' E 009°35'714.6
2019-Jun-01 09:30N 57°46' E 009°47'714.9
2019-Jun-01 08:59N 57°48' E 010°01'815.6
2019-Jun-01 08:30N 57°51' E 010°14'814.8
2019-Jun-01 08:00N 57°53' E 010°27'816.2
2019-Jun-01 07:30N 57°50' E 010°42'815.6
2019-Jun-01 07:00N 57°44' E 010°48'5 9.4
2019-Jun-01 06:30N 57°41' E 010°41'2 2.9
2019-Jun-01 05:59N 57°42' E 010°38'0 0.0
2019-Jun-01 05:20N 57°42' E 010°38'0 0.0
2019-Jun-01 04:59N 57°42' E 010°38'0 0.0
2019-Jun-01 04:29N 57°42' E 010°38'0 0.0
2019-Jun-01 03:59N 57°42' E 010°38'0 0.0
2019-Jun-01 03:29N 57°42' E 010°38'0 0.0
2019-Jun-01 02:59N 57°42' E 010°38'0 0.0
2019-Jun-01 02:26N 57°42' E 010°38'0 0.0
2019-Jun-01 01:56N 57°42' E 010°38'0 0.0
2019-Jun-01 01:29N 57°42' E 010°38'0 0.0
2019-Jun-01 00:59N 57°42' E 010°38'0 0.0
2019-Jun-01 00:29N 57°42' E 010°38'0 0.0
2019-May-31 23:59N 57°42' E 010°38'0 0.0
2019-May-31 23:29N 57°42' E 010°38'0 0.0
2019-May-31 22:59N 57°42' E 010°38'0 0.0
2019-May-31 22:29N 57°42' E 010°38'0 0.0
2019-May-31 21:59N 57°42' E 010°38'0 0.0
2019-May-31 21:29N 57°42' E 010°38'0 0.0
2019-May-31 20:59N 57°42' E 010°38'0 0.0
2019-May-31 20:28N 57°42' E 010°38'0 0.4
2019-May-31 20:00N 57°41' E 010°39'4 7.3
2019-May-31 19:30N 57°40' E 010°45'816.1
2019-May-31 19:00N 57°36' E 010°58'917.4
2019-May-31 18:30N 57°32' E 011°12'816.6
2019-May-31 18:00N 57°28' E 011°26'816.6
2019-May-31 17:30N 57°20' E 011°32'917.1
2019-May-31 17:00N 57°12' E 011°37'816.9
2019-May-31 16:30N 57°04' E 011°42'917.4
2019-May-31 16:00N 56°56' E 011°47'817.1
2019-May-31 15:30N 56°48' E 011°52'9615.6
2019-May-31 09:21N 55°16' E 011°04'514.1
2019-May-31 09:00N 55°11' E 011°04'714.3
2019-May-31 08:30N 55°05' E 010°60'815.4
2019-May-31 08:00N 54°57' E 010°56'816.2
2019-May-31 07:30N 54°50' E 010°50'816.7
2019-May-31 07:00N 54°42' E 010°47'815.6
2019-May-31 06:30N 54°37' E 010°58'815.8
2019-May-31 06:00N 54°36' E 011°11'816.1
2019-May-31 05:30N 54°32' E 011°24'816.9
2019-May-31 05:00N 54°29' E 011°37'816.2
2019-May-31 04:30N 54°26' E 011°50'1322.0
2019-May-31 03:54N 54°30' E 012°12'1110.7
2019-May-31 02:51N 54°39' E 012°23'6516.5
2019-May-30 22:54N 55°06' E 014°06'616.5
2019-May-30 22:30N 55°11' E 014°14'2116.4
2019-May-30 21:14N 55°27' E 014°37'416.2
2019-May-30 21:00N 55°29' E 014°43'1616.3
2019-May-30 20:00N 55°37' E 015°08'816.3
2019-May-30 19:30N 55°41' E 015°20'816.4
2019-May-30 19:00N 55°45' E 015°33'816.5
2019-May-30 18:30N 55°49' E 015°46'816.3
2019-May-30 18:00N 55°53' E 015°58'816.2
2019-May-30 17:30N 55°57' E 016°11'816.4
2019-May-30 17:00N 56°01' E 016°23'816.4
2019-May-30 16:30N 56°06' E 016°36'816.6
2019-May-30 16:00N 56°10' E 016°48'816.7
2019-May-30 15:30N 56°18' E 016°54'816.9
2019-May-30 15:00N 56°26' E 016°60'817.0
2019-May-30 14:30N 56°34' E 017°05'817.0
2019-May-30 14:00N 56°42' E 017°10'16916.8
2019-May-30 03:57N 59°11' E 019°41'817.8
2019-May-30 03:30N 59°17' E 019°49'1517.0
2019-May-30 02:36N 59°31' E 020°04'217.2
2019-May-30 02:28N 59°33' E 020°04'1517.5
2019-May-30 01:36N 59°45' E 019°44'319.1
2019-May-30 01:25N 59°47' E 019°40'717.2
2019-May-30 01:00N 59°53' E 019°31'917.8
2019-May-30 00:30N 59°59' E 019°19'917.9
2019-May-30 00:00N 60°06' E 019°07'816.6
2019-May-29 23:30N 60°14' E 019°00'816.9
2019-May-29 23:00N 60°22' E 018°60'7116.0
2019-May-29 18:35N 61°06' E 020°54'117.0
2019-May-29 18:30N 61°07' E 020°56'714.4
2019-May-29 18:00N 61°07' E 021°11'5 9.6
2019-May-29 17:30N 61°06' E 021°21'3 5.8
2019-May-29 17:00N 61°08' E 021°26'0 0.0
2019-May-29 16:24N 61°08' E 021°26'0 0.0
2019-May-29 15:57N 61°08' E 021°26'0 0.0
2019-May-29 15:30N 61°08' E 021°26'0 0.0
2019-May-29 15:00N 61°08' E 021°26'0 0.0
2019-May-29 14:30N 61°08' E 021°26'0 0.0
2019-May-29 14:00N 61°08' E 021°26'0 0.0
2019-May-29 13:30N 61°08' E 021°26'0 0.0
2019-May-29 13:00N 61°08' E 021°26'0 0.0
2019-May-29 12:30N 61°08' E 021°26'0 0.0
2019-May-29 12:00N 61°08' E 021°26'0 0.0
2019-May-29 11:30N 61°08' E 021°26'0 0.0
2019-May-29 11:00N 61°08' E 021°26'0 0.0
2019-May-29 10:30N 61°08' E 021°26'0 0.0
2019-May-29 10:00N 61°08' E 021°26'0 0.0
2019-May-29 09:30N 61°08' E 021°26'0 0.0
2019-May-29 09:00N 61°08' E 021°26'0 0.0
2019-May-29 08:30N 61°08' E 021°26'0 0.0
2019-May-29 08:00N 61°08' E 021°26'0 0.0
2019-May-29 07:30N 61°08' E 021°26'0 0.0
2019-May-29 06:57N 61°08' E 021°26'0 0.0
2019-May-29 06:30N 61°08' E 021°26'0 0.0
2019-May-29 06:00N 61°08' E 021°26'0 0.0
2019-May-29 05:30N 61°08' E 021°26'0 0.0
2019-May-29 05:00N 61°08' E 021°26'0 0.0
2019-May-29 04:30N 61°08' E 021°26'0 0.0
2019-May-29 04:00N 61°08' E 021°26'0 0.0
2019-May-29 03:30N 61°08' E 021°26'0 0.0
2019-May-29 03:00N 61°08' E 021°26'0 0.0
2019-May-29 02:27N 61°08' E 021°26'0 0.0
2019-May-29 01:57N 61°08' E 021°26'0 0.0
2019-May-29 01:27N 61°08' E 021°26'0 0.0
2019-May-29 00:57N 61°08' E 021°26'0 0.0
2019-May-29 00:27N 61°08' E 021°26'0 0.0
2019-May-29 00:00N 61°08' E 021°26'0 0.0
2019-May-28 23:30N 61°08' E 021°26'0 0.0
2019-May-28 23:00N 61°08' E 021°26'0 0.0
2019-May-28 22:29N 61°08' E 021°26'0 0.0
2019-May-28 21:59N 61°08' E 021°26'0 0.0
2019-May-28 21:26N 61°08' E 021°26'0 0.0
2019-May-28 20:56N 61°08' E 021°26'0 0.0
2019-May-28 20:29N 61°08' E 021°26'0 0.0
2019-May-28 19:56N 61°08' E 021°26'0 0.0
2019-May-28 19:29N 61°08' E 021°26'0 0.0
2019-May-28 18:59N 61°08' E 021°26'0 0.0
2019-May-28 18:29N 61°08' E 021°26'0 0.0
2019-May-28 17:59N 61°08' E 021°26'0 0.0
2019-May-28 17:26N 61°08' E 021°26'0 0.0
2019-May-28 17:00N 61°08' E 021°26'0 0.0
2019-May-28 16:29N 61°08' E 021°26'0 0.0
2019-May-28 15:59N 61°08' E 021°26'0 0.0
2019-May-28 15:30N 61°08' E 021°26'0 0.0
2019-May-28 14:50N 61°08' E 021°26'0 0.0
2019-May-28 14:29N 61°08' E 021°26'0 0.0
2019-May-28 13:59N 61°08' E 021°26'0 0.0
2019-May-28 13:29N 61°08' E 021°26'0 0.0
2019-May-28 12:56N 61°08' E 021°26'0 0.0
2019-May-28 12:26N 61°08' E 021°26'0 0.0
2019-May-28 11:59N 61°08' E 021°26'0 0.0
2019-May-28 11:26N 61°08' E 021°26'0 0.0
2019-May-28 10:59N 61°08' E 021°26'0 0.0
2019-May-28 10:29N 61°08' E 021°26'0 0.0
2019-May-28 09:59N 61°08' E 021°26'0 0.0
2019-May-28 09:29N 61°08' E 021°26'0 0.0
2019-May-28 08:59N 61°08' E 021°26'0 0.0
2019-May-28 08:29N 61°08' E 021°26'0 0.0
2019-May-28 08:01N 61°08' E 021°26'1 2.7
2019-May-28 07:31N 61°07' E 021°24'612.4
2019-May-28 07:00N 61°07' E 021°11'5 9.7
2019-May-28 06:30N 61°10' E 021°02'7 0.2
2019-May-26 15:29N 61°16' E 020°57'817.0
2019-May-26 15:00N 61°09' E 021°06'714.0
2019-May-26 14:31N 61°06' E 021°19'4 7.7
2019-May-26 14:01N 61°08' E 021°26'0 0.0
2019-May-26 13:31N 61°08' E 021°26'0 0.0
2019-May-26 12:58N 61°08' E 021°26'0 0.0
2019-May-26 12:28N 61°08' E 021°26'0 0.0
2019-May-26 11:58N 61°08' E 021°26'0 0.0
2019-May-26 11:28N 61°08' E 021°26'0 0.0
2019-May-26 10:58N 61°08' E 021°26'0 0.0
2019-May-26 10:28N 61°08' E 021°26'0 0.0
2019-May-26 09:58N 61°08' E 021°26'0 0.0
2019-May-26 09:28N 61°08' E 021°26'0 0.0
2019-May-26 08:58N 61°08' E 021°26'0 0.0
2019-May-26 08:28N 61°08' E 021°26'0 0.0
2019-May-26 07:58N 61°08' E 021°26'0 0.0
2019-May-26 07:28N 61°08' E 021°26'0 0.0
2019-May-26 06:58N 61°08' E 021°26'0 0.0
2019-May-26 06:28N 61°08' E 021°26'0 0.0
2019-May-26 05:58N 61°08' E 021°26'0 0.0
2019-May-26 05:28N 61°08' E 021°26'0 0.0
2019-May-26 04:58N 61°08' E 021°26'0 0.0
2019-May-26 04:28N 61°08' E 021°26'0 0.0
2019-May-26 03:58N 61°08' E 021°26'0 0.0
2019-May-26 03:28N 61°08' E 021°26'0 0.0
2019-May-26 02:58N 61°08' E 021°26'0 0.0
2019-May-26 02:28N 61°08' E 021°26'0 0.0
2019-May-26 01:27N 61°08' E 021°26'0 0.0
2019-May-26 01:00N 61°08' E 021°26'0 0.0
2019-May-26 00:30N 61°08' E 021°26'0 0.0
2019-May-26 00:00N 61°08' E 021°26'0 0.0
2019-May-25 23:30N 61°08' E 021°26'0 0.0
2019-May-25 23:00N 61°08' E 021°26'0 0.0
2019-May-25 22:30N 61°08' E 021°26'0 0.0
2019-May-25 21:57N 61°08' E 021°26'0 0.0
2019-May-25 21:30N 61°08' E 021°26'0 0.0
2019-May-25 21:00N 61°08' E 021°26'0 0.0
2019-May-25 20:30N 61°08' E 021°26'0 0.0
2019-May-25 20:00N 61°08' E 021°26'0 0.0
2019-May-25 19:30N 61°08' E 021°26'0 0.0
2019-May-25 18:57N 61°08' E 021°26'0 0.0
2019-May-25 18:30N 61°08' E 021°26'0 0.0
2019-May-25 18:00N 61°08' E 021°26'0 0.0
2019-May-25 17:27N 61°08' E 021°26'0 0.0
2019-May-25 16:54N 61°08' E 021°26'0 0.0
2019-May-25 16:30N 61°08' E 021°26'0 0.0
2019-May-25 15:51N 61°08' E 021°26'0 0.0
2019-May-25 15:27N 61°08' E 021°26'0 0.0
2019-May-25 14:54N 61°08' E 021°26'0 0.0
2019-May-25 14:30N 61°08' E 021°26'0 0.0
2019-May-25 13:57N 61°08' E 021°26'0 0.0
2019-May-25 13:30N 61°08' E 021°26'0 0.0
2019-May-25 13:00N 61°08' E 021°26'0 0.0
2019-May-25 12:30N 61°08' E 021°26'0 0.0
2019-May-25 12:00N 61°08' E 021°26'0 0.0
2019-May-25 11:30N 61°08' E 021°26'0 0.0
2019-May-25 10:57N 61°08' E 021°26'0 0.0
2019-May-25 10:30N 61°08' E 021°26'0 0.0
2019-May-25 10:00N 61°08' E 021°26'0 0.0
2019-May-25 09:30N 61°08' E 021°26'0 0.0
2019-May-25 09:00N 61°08' E 021°26'0 0.0
2019-May-25 08:30N 61°08' E 021°26'0 0.0
2019-May-25 08:00N 61°08' E 021°26'0 0.0
2019-May-25 07:30N 61°08' E 021°26'0 0.0
2019-May-25 07:00N 61°08' E 021°26'0 0.0
2019-May-25 06:30N 61°08' E 021°26'0 0.0
2019-May-25 06:00N 61°08' E 021°26'0 0.0
2019-May-25 05:30N 61°08' E 021°26'0 0.0
2019-May-25 05:00N 61°08' E 021°26'0 0.0
2019-May-25 04:30N 61°08' E 021°26'0 0.0
2019-May-25 04:00N 61°08' E 021°26'0 0.0
2019-May-25 03:30N 61°08' E 021°26'  

Dump ship's entire track history